Time;durP1;ratioP1;P1;durP2;ratioP2;P2;SDS_P1;SDS_P2;PMS_P1;PMS_P2;Temp;Humidity;BMP_temperature;BMP_pressure;BME280_temperature;BME280_humidity;BME280_pressure;Samples;Min_cycle;Max_cycle;Signal;HPM_P1;HPM_P2
2021/12/13 00:00:12;;;;;;;8.55;2.33;;;23.10;78.40;;;;;;5133252;27;20399;-85
2021/12/13 00:03:03;;;;;;;7.00;2.10;;;23.30;78.40;;;;;;5114740;27;20855;-85
2021/12/13 00:05:50;;;;;;;9.43;2.30;;;23.40;74.60;;;;;;5114465;27;20393;-85
2021/12/13 00:08:31;;;;;;;9.27;2.20;;;23.60;73.60;;;;;;5133196;27;20385;-87
2021/12/13 00:11:09;;;;;;;10.73;2.50;;;23.30;73.70;;;;;;5133095;27;20357;-86
2021/12/13 00:13:42;;;;;;;11.10;2.28;;;22.60;75.30;;;;;;5134629;27;20397;-87
2021/12/13 00:16:10;;;;;;;9.05;1.95;;;22.20;81.40;;;;;;5132969;27;20396;-87
2021/12/13 00:18:46;;;;;;;8.07;2.20;;;22.40;79.50;;;;;;5132908;27;20379;-86
2021/12/13 00:21:24;;;;;;;10.70;2.23;;;22.60;77.20;;;;;;5133062;27;20426;-87
2021/12/13 00:24:01;;;;;;;8.95;2.30;;;22.60;79.30;;;;;;5132559;27;20414;-87
2021/12/13 00:26:36;;;;;;;6.70;2.00;;;23.00;78.90;;;;;;5132753;27;20427;-86
2021/12/13 00:29:19;;;;;;;8.48;2.20;;;23.40;75.00;;;;;;5132554;27;20384;-88
2021/12/13 00:32:08;;;;;;;7.80;2.20;;;23.70;73.50;;;;;;5132557;27;20357;-86
2021/12/13 00:34:57;;;;;;;10.27;2.33;;;24.40;69.80;;;;;;5132325;27;20397;-87
2021/12/13 00:37:30;;;;;;;7.65;2.00;;;24.90;67.80;;;;;;5132450;27;20434;-87
2021/12/13 00:40:07;;;;;;;9.52;2.40;;;25.20;64.80;;;;;;5132433;27;20365;-87
2021/12/13 00:42:40;;;;;;;10.88;2.28;;;25.10;65.50;;;;;;5132418;27;20357;-87
2021/12/13 00:45:14;;;;;;;9.48;2.22;;;24.60;65.70;;;;;;5132239;27;20381;-86
2021/12/13 00:47:43;;;;;;;10.98;2.42;;;24.60;67.40;;;;;;5132221;27;20815;-87
2021/12/13 00:50:19;;;;;;;17.48;2.70;;;24.90;67.40;;;;;;5132189;27;20468;-87
2021/12/13 00:52:48;;;;;;;9.73;2.40;;;25.10;67.70;;;;;;5131314;27;20362;-86
2021/12/13 00:55:25;;;;;;;7.57;2.10;;;25.90;64.10;;;;;;5113666;27;20408;-87
2021/12/13 00:58:10;;;;;;;10.45;2.20;;;26.20;62.20;;;;;;5135994;27;20453;-87
2021/12/13 01:00:41;;;;;;;10.13;2.10;;;26.40;64.70;;;;;;5132051;27;20369;-88
2021/12/13 01:03:22;;;;;;;7.60;2.00;;;26.60;60.70;;;;;;5132087;27;21027;-87
2021/12/13 01:06:26;;;;;;;10.63;2.25;;;27.00;58.20;;;;;;5131766;27;20361;-87
2021/12/13 01:09:30;;;;;;;13.27;2.65;;;27.00;60.40;;;;;;5131857;27;20452;-87
2021/12/13 01:12:00;;;;;;;7.43;1.77;;;27.30;59.00;;;;;;5131380;27;20371;-87
2021/12/13 01:14:35;;;;;;;14.93;2.50;;;27.30;57.80;;;;;;5131670;27;20709;-87
2021/12/13 01:17:42;;;;;;;13.65;2.50;;;27.20;57.10;;;;;;5131462;27;20884;-86
2021/12/13 01:20:25;;;;;;;12.07;2.50;;;27.10;56.90;;;;;;5131686;27;20369;-86
2021/12/13 01:23:02;;;;;;;10.82;2.33;;;27.40;56.30;;;;;;5131780;27;20369;-87
2021/12/13 01:26:00;;;;;;;9.32;2.20;;;27.60;56.30;;;;;;5131734;27;20354;-86
2021/12/13 01:28:33;;;;;;;11.32;2.40;;;28.10;55.00;;;;;;5131735;27;20369;-86
2021/12/13 01:31:15;;;;;;;10.25;2.40;;;28.20;56.30;;;;;;5131493;27;20444;-85
2021/12/13 01:33:45;;;;;;;8.23;2.13;;;28.40;54.00;;;;;;5131350;27;20864;-86
2021/12/13 01:36:20;;;;;;;9.93;2.20;;;28.30;54.00;;;;;;5131523;27;20397;-85
2021/12/13 01:38:54;;;;;;;9.07;2.58;;;28.70;53.50;;;;;;5131906;27;20713;-86
2021/12/13 01:41:35;;;;;;;13.25;2.60;;;28.70;53.50;;;;;;5131588;27;20374;-86
2021/12/13 01:44:08;;;;;;;15.85;2.53;;;27.90;54.00;;;;;;5131333;27;20436;-85
2021/12/13 01:46:43;;;;;;;7.90;2.25;;;27.10;54.70;;;;;;5112609;27;20373;-86
2021/12/13 01:49:11;;;;;;;9.13;2.15;;;27.00;56.80;;;;;;5131273;27;20405;-89
2021/12/13 01:51:39;;;;;;;11.32;2.47;;;26.80;57.80;;;;;;5131137;27;20421;-88
2021/12/13 01:54:17;;;;;;;9.38;2.30;;;27.10;57.50;;;;;;5131355;27;20944;-87
2021/12/13 01:57:21;;;;;;;11.85;2.30;;;27.50;59.00;;;;;;5131092;27;20868;-85
2021/12/13 02:00:08;;;;;;;12.63;2.40;;;28.30;56.30;;;;;;5131264;27;20361;-87
2021/12/13 02:02:47;;;;;;;19.88;2.50;;;28.80;56.30;;;;;;5131095;27;20430;-86
2021/12/13 02:05:29;;;;;;;18.08;2.60;;;29.70;54.40;;;;;;5134192;27;20402;-87
2021/12/13 02:08:06;;;;;;;9.10;2.10;;;30.40;51.60;;;;;;5135605;27;20365;-86
2021/12/13 02:10:45;;;;;;;7.55;2.25;;;30.40;49.90;;;;;;5137259;27;20836;-87
2021/12/13 02:13:20;;;;;;;12.43;2.35;;;30.40;50.80;;;;;;5136333;27;20448;-85
2021/12/13 02:18:40;;;;;;;11.20;2.25;;;30.60;50.70;;;;;;5135573;27;20410;-87
2021/12/13 02:21:11;;;;;;;12.82;2.58;;;31.00;49.00;;;;;;5135065;27;20400;-85
2021/12/13 02:23:43;;;;;;;13.05;2.10;;;30.90;49.60;;;;;;5135207;27;20365;-87
2021/12/13 02:26:11;;;;;;;11.13;2.45;;;31.20;49.00;;;;;;5135331;27;20380;-85
2021/12/13 02:28:41;;;;;;;9.13;2.30;;;31.50;47.70;;;;;;5135072;27;20369;-85
2021/12/13 02:31:11;;;;;;;9.03;2.50;;;30.30;48.30;;;;;;5134980;27;20366;-86
2021/12/13 02:33:52;;;;;;;7.88;2.10;;;29.10;51.80;;;;;;5134818;27;20453;-88
2021/12/13 02:36:27;;;;;;;15.15;2.33;;;28.60;53.80;;;;;;5135335;27;20488;-87
2021/12/13 02:38:58;;;;;;;9.73;2.15;;;29.20;54.40;;;;;;5135019;27;20369;-85
2021/12/13 02:41:28;;;;;;;8.88;1.88;;;30.30;51.30;;;;;;5134938;27;20394;-85
2021/12/13 02:44:01;;;;;;;7.95;2.00;;;31.00;51.60;;;;;;5134533;27;20875;-85
2021/12/13 02:46:29;;;;;;;9.43;2.10;;;31.90;50.00;;;;;;5134830;27;20416;-87
2021/12/13 02:49:03;;;;;;;9.25;2.40;;;32.40;47.70;;;;;;5134584;27;20373;-85
2021/12/13 02:51:35;;;;;;;5.63;2.05;;;32.10;49.90;;;;;;5134429;27;20373;-88
2021/12/13 02:54:05;;;;;;;10.63;2.20;;;32.80;48.70;;;;;;5134534;27;20833;-86
2021/12/13 02:56:40;;;;;;;9.02;2.20;;;33.50;47.50;;;;;;5134305;27;20872;-87
2021/12/13 02:59:10;;;;;;;7.23;2.13;;;33.80;45.20;;;;;;5134466;27;20422;-87
2021/12/13 03:01:46;;;;;;;7.28;2.22;;;33.60;45.20;;;;;;5134438;27;20376;-86
2021/12/13 03:04:21;;;;;;;9.27;2.10;;;33.20;45.80;;;;;;5134112;27;20400;-86
2021/12/13 03:07:05;;;;;;;10.20;2.20;;;33.70;44.90;;;;;;5134365;27;20369;-87
2021/12/13 03:09:35;;;;;;;10.07;2.30;;;33.20;45.50;;;;;;5134471;27;20770;-87
2021/12/13 03:12:09;;;;;;;6.45;2.15;;;33.40;45.10;;;;;;5115660;27;20381;-88
2021/12/13 03:14:50;;;;;;;9.43;2.20;;;32.70;46.30;;;;;;5134074;27;20448;-86
2021/12/13 03:17:35;;;;;;;8.25;2.10;;;32.60;45.60;;;;;;5133002;27;20432;-87
2021/12/13 03:20:37;;;;;;;7.63;2.00;;;32.90;44.70;;;;;;5134154;27;20864;-87
2021/12/13 03:23:41;;;;;;;9.05;2.00;;;32.80;44.50;;;;;;5134190;27;20365;-87
2021/12/13 03:26:44;;;;;;;18.98;2.90;;;32.90;43.50;;;;;;5137171;27;20364;-88
2021/12/13 03:29:34;;;;;;;6.88;2.10;;;33.50;44.20;;;;;;5133968;27;20398;-86
2021/12/13 03:32:01;;;;;;;7.85;2.00;;;33.80;44.00;;;;;;5133743;27;20369;-87
2021/12/13 03:34:35;;;;;;;7.03;2.00;;;33.60;45.40;;;;;;5133574;27;20476;-87
2021/12/13 03:37:07;;;;;;;5.50;2.00;;;34.30;44.10;;;;;;5133676;27;20393;-87
2021/12/13 03:39:39;;;;;;;5.35;1.90;;;34.70;43.00;;;;;;5133661;27;20852;-86
2021/12/13 03:42:15;;;;;;;9.57;2.08;;;35.20;42.90;;;;;;5133724;27;20440;-87
2021/12/13 03:44:48;;;;;;;8.73;2.10;;;35.80;41.60;;;;;;5133644;27;20372;-87
2021/12/13 03:47:38;;;;;;;8.32;2.00;;;36.10;42.20;;;;;;5133533;27;20369;-88
2021/12/13 03:50:17;;;;;;;8.02;1.88;;;36.40;41.90;;;;;;5133960;27;20373;-88
2021/12/13 03:52:48;;;;;;;4.35;1.80;;;36.70;39.40;;;;;;5133393;27;20400;-87
2021/12/13 03:55:19;;;;;;;6.03;1.80;;;36.60;41.30;;;;;;5133204;27;20430;-85
2021/12/13 03:57:53;;;;;;;5.35;1.70;;;36.20;41.30;;;;;;5133280;27;20401;-86
2021/12/13 04:00:25;;;;;;;7.07;1.98;;;36.20;40.70;;;;;;5133333;27;20410;-86
2021/12/13 04:02:56;;;;;;;5.28;1.83;;;36.30;40.80;;;;;;5133289;27;20369;-87
2021/12/13 04:05:26;;;;;;;5.05;1.83;;;36.70;39.00;;;;;;5132997;27;20425;-86
2021/12/13 04:08:03;;;;;;;6.97;1.98;;;36.80;38.80;;;;;;5133300;27;20932;-87
2021/12/13 04:10:34;;;;;;;7.72;2.00;;;36.40;39.50;;;;;;5132808;27;20748;-86
2021/12/13 04:13:10;;;;;;;5.72;1.67;;;37.00;39.70;;;;;;5132894;27;20400;-87
2021/12/13 04:16:12;;;;;;;5.18;1.70;;;36.90;39.30;;;;;;5132896;27;20368;-87
2021/12/13 04:21:52;;;;;;;9.63;2.45;;;36.50;39.50;;;;;;5132825;27;20914;-86
2021/12/13 04:24:32;;;;;;;8.03;2.40;;;36.00;42.30;;;;;;5132871;27;20357;-86
2021/12/13 04:27:05;;;;;;;8.43;2.70;;;36.00;41.60;;;;;;5114040;27;20365;-86
2021/12/13 04:29:36;;;;;;;8.10;2.58;;;36.00;42.10;;;;;;5132659;27;20375;-87
2021/12/13 04:32:37;;;;;;;8.90;2.50;;;35.60;41.60;;;;;;5132990;27;20811;-86
2021/12/13 04:35:08;;;;;;;13.65;2.88;;;35.80;41.80;;;;;;5132408;27;20529;-87
2021/12/13 04:37:44;;;;;;;7.18;2.70;;;35.70;41.40;;;;;;5132696;27;20952;-87
2021/12/13 04:40:15;;;;;;;11.15;2.78;;;35.40;43.60;;;;;;5132536;27;20408;-88
2021/12/13 04:42:43;;;;;;;9.32;2.45;;;35.30;42.10;;;;;;5132458;27;20365;-86
2021/12/13 04:45:21;;;;;;;8.85;2.67;;;35.20;42.80;;;;;;5132330;27;20787;-84
2021/12/13 04:48:19;;;;;;;7.43;2.30;;;35.00;42.80;;;;;;5132403;27;20383;-86
2021/12/13 04:51:11;;;;;;;10.02;2.70;;;34.80;44.00;;;;;;5132170;27;20388;-87
2021/12/13 04:53:47;;;;;;;6.72;2.55;;;35.10;42.60;;;;;;5131301;27;20914;-85
2021/12/13 04:56:19;;;;;;;5.82;2.38;;;35.50;43.00;;;;;;5132155;27;20831;-85
2021/12/13 04:58:48;;;;;;;8.65;2.60;;;35.30;43.00;;;;;;5114615;27;20767;-85
2021/12/13 05:01:18;;;;;;;11.75;2.58;;;35.40;43.10;;;;;;5132145;27;20391;-85
2021/12/13 05:03:54;;;;;;;8.45;2.50;;;35.50;42.90;;;;;;5131975;27;20448;-85
2021/12/13 05:06:31;;;;;;;7.53;2.47;;;35.40;42.20;;;;;;5131915;27;20375;-86
2021/12/13 05:09:03;;;;;;;7.47;2.33;;;35.30;42.60;;;;;;5128807;27;20377;-86
2021/12/13 05:11:34;;;;;;;8.18;2.58;;;34.90;43.80;;;;;;5129752;27;20496;-83
2021/12/13 05:14:03;;;;;;;8.70;2.40;;;34.40;44.20;;;;;;5131438;27;20373;-85
2021/12/13 05:16:45;;;;;;;10.85;2.70;;;34.40;44.10;;;;;;5131216;27;21019;-84
2021/12/13 05:19:15;;;;;;;8.27;2.40;;;34.50;44.00;;;;;;5131411;27;20377;-85
2021/12/13 05:21:48;;;;;;;10.20;2.40;;;34.40;44.30;;;;;;5131029;27;20744;-86
2021/12/13 05:24:23;;;;;;;7.95;2.47;;;34.40;44.10;;;;;;5131634;27;20377;-84
2021/12/13 05:26:53;;;;;;;8.88;2.63;;;33.70;43.80;;;;;;5130109;27;20378;-86
2021/12/13 05:29:30;;;;;;;9.65;2.38;;;33.60;45.20;;;;;;5131184;27;20420;-85
2021/12/13 05:32:17;;;;;;;8.43;2.47;;;33.30;46.20;;;;;;5131489;27;20388;-84
2021/12/13 05:34:47;;;;;;;8.68;2.55;;;33.20;45.20;;;;;;5130938;27;20389;-85
2021/12/13 05:37:15;;;;;;;9.15;2.47;;;33.20;44.90;;;;;;5131371;27;20401;-85
2021/12/13 05:39:58;;;;;;;9.32;2.70;;;33.20;45.60;;;;;;5130301;27;20405;-85
2021/12/13 05:42:44;;;;;;;7.88;2.47;;;33.20;45.20;;;;;;5130857;27;20857;-85
2021/12/13 05:45:16;;;;;;;8.50;2.50;;;33.30;45.60;;;;;;5131535;27;20845;-86
2021/12/13 05:48:02;;;;;;;8.15;2.40;;;33.30;45.30;;;;;;5131043;27;20437;-84
2021/12/13 05:50:55;;;;;;;9.15;2.40;;;32.90;45.10;;;;;;5131430;27;20392;-86
2021/12/13 05:53:30;;;;;;;7.65;2.50;;;32.70;45.80;;;;;;5120271;27;20393;-88
2021/12/13 05:56:03;;;;;;;7.93;2.40;;;32.40;47.00;;;;;;5130472;28;20369;-85
2021/12/13 05:58:58;;;;;;;9.43;2.60;;;32.60;45.70;;;;;;5131311;27;20373;-87
2021/12/13 06:01:28;;;;;;;7.72;2.63;;;32.50;46.40;;;;;;5144707;27;20383;-86
2021/12/13 06:04:17;;;;;;;7.95;2.50;;;32.50;46.70;;;;;;5152148;27;20437;-87
2021/12/13 06:06:49;;;;;;;9.00;2.60;;;32.60;46.40;;;;;;5151945;27;20454;-87
2021/12/13 06:09:43;;;;;;;6.38;2.22;;;32.50;45.90;;;;;;5130565;28;20377;-88
2021/12/13 06:12:23;;;;;;;8.23;2.50;;;32.10;46.60;;;;;;5111452;28;20917;-85
2021/12/13 06:14:52;;;;;;;9.25;2.45;;;31.80;47.00;;;;;;5110948;28;20379;-89
2021/12/13 06:17:31;;;;;;;9.23;3.05;;;31.90;47.00;;;;;;5111119;28;20402;-87
2021/12/13 06:20:06;;;;;;;9.10;2.70;;;31.70;47.00;;;;;;5125127;27;20368;-87
2021/12/13 06:22:34;;;;;;;7.60;2.50;;;31.60;48.40;;;;;;5130925;27;20372;-86
2021/12/13 06:25:24;;;;;;;6.75;2.45;;;31.80;48.20;;;;;;5130650;27;20400;-87
2021/12/13 06:27:55;;;;;;;9.18;2.88;;;31.90;46.90;;;;;;5130917;27;20362;-90
2021/12/13 06:30:26;;;;;;;8.43;2.38;;;31.90;47.40;;;;;;5131864;28;20369;-87
2021/12/13 06:32:58;;;;;;;10.32;2.50;;;31.70;48.00;;;;;;5130262;27;20377;-87
2021/12/13 06:35:34;;;;;;;6.77;2.37;;;31.40;48.20;;;;;;5111926;28;20449;-86
2021/12/13 06:38:20;;;;;;;11.23;2.70;;;31.10;48.10;;;;;;5132606;27;20488;-86
2021/12/13 06:41:07;;;;;;;9.13;2.40;;;31.00;48.30;;;;;;5130719;28;20369;-88
2021/12/13 06:43:54;;;;;;;7.80;2.22;;;31.00;49.00;;;;;;5111490;27;20433;-88
2021/12/13 06:46:24;;;;;;;10.27;2.42;;;31.00;49.10;;;;;;5128639;27;20368;-87
2021/12/13 06:48:59;;;;;;;9.18;2.55;;;31.00;48.30;;;;;;5110551;28;20765;-87
2021/12/13 06:51:50;;;;;;;7.00;2.20;;;30.70;49.00;;;;;;5113288;28;20374;-89
2021/12/13 06:54:38;;;;;;;8.80;2.45;;;30.50;50.00;;;;;;5115434;27;20388;-88
2021/12/13 06:57:13;;;;;;;7.28;2.30;;;30.50;49.90;;;;;;5134303;27;20396;-91
2021/12/13 07:00:05;;;;;;;8.38;2.30;;;30.60;49.50;;;;;;5134608;27;20450;-87
2021/12/13 07:02:43;;;;;;;5.95;2.35;;;30.80;49.40;;;;;;5131057;27;20843;-89
2021/12/13 07:05:36;;;;;;;7.70;2.30;;;30.60;49.80;;;;;;5133905;27;20387;-89
2021/12/13 07:08:09;;;;;;;8.35;2.38;;;30.70;49.30;;;;;;5139123;27;20377;-88
2021/12/13 07:10:44;;;;;;;7.15;2.40;;;30.80;49.20;;;;;;5135720;27;20369;-89
2021/12/13 07:13:22;;;;;;;7.15;2.20;;;30.70;49.40;;;;;;5133231;27;20416;-88
2021/12/13 07:16:15;;;;;;;7.47;2.45;;;30.60;49.90;;;;;;5134003;27;20373;-90
2021/12/13 07:18:47;;;;;;;7.60;2.30;;;30.70;49.60;;;;;;5134008;27;20401;-89
2021/12/13 07:21:21;;;;;;;8.60;2.30;;;30.80;48.60;;;;;;5132956;27;20709;-88
2021/12/13 07:24:07;;;;;;;6.53;2.30;;;30.50;49.60;;;;;;5133397;27;20452;-88
2021/12/13 07:26:47;;;;;;;8.43;2.63;;;30.30;49.50;;;;;;5133837;27;20705;-86
2021/12/13 07:29:42;;;;;;;7.53;2.40;;;30.20;49.80;;;;;;5115385;27;20377;-87
2021/12/13 07:32:12;;;;;;;9.52;2.50;;;30.20;49.50;;;;;;5079069;27;20454;-90
2021/12/13 07:35:01;;;;;;;9.63;2.33;;;29.90;49.80;;;;;;5134049;27;20933;-85
2021/12/13 07:37:37;;;;;;;6.82;2.25;;;29.60;50.30;;;;;;5116093;27;20464;-90
2021/12/13 07:40:27;;;;;;;6.55;2.25;;;29.30;50.60;;;;;;5133014;27;20381;-86
2021/12/13 07:43:20;;;;;;;6.13;2.10;;;29.20;50.90;;;;;;5144092;27;20439;-89
2021/12/13 07:46:11;;;;;;;6.07;2.47;;;29.00;51.70;;;;;;5139943;27;20743;-85
2021/12/13 07:48:54;;;;;;;6.80;2.30;;;28.80;52.40;;;;;;5134453;27;20381;-86
2021/12/13 07:51:27;;;;;;;6.93;2.30;;;28.80;52.00;;;;;;5095675;28;20791;-85
2021/12/13 07:54:01;;;;;;;11.48;2.40;;;28.40;52.80;;;;;;5131125;27;20417;-85
2021/12/13 07:56:38;;;;;;;10.60;2.40;;;28.20;53.60;;;;;;5133208;27;20446;-86
2021/12/13 07:59:15;;;;;;;7.15;2.67;;;28.00;53.50;;;;;;5148990;27;20367;-86
2021/12/13 08:02:05;;;;;;;6.73;2.10;;;27.80;54.10;;;;;;5133212;27;20388;-85
2021/12/13 08:04:56;;;;;;;7.07;2.42;;;27.70;54.20;;;;;;5122795;27;20369;-85
2021/12/13 08:07:41;;;;;;;9.13;2.67;;;27.50;54.10;;;;;;5112627;27;20407;-85
2021/12/13 08:10:13;;;;;;;7.80;2.50;;;27.20;55.80;;;;;;5112786;28;20398;-87
2021/12/13 08:12:48;;;;;;;9.85;2.50;;;26.90;55.80;;;;;;5122256;27;20848;-86
2021/12/13 08:15:18;;;;;;;10.07;2.40;;;26.60;56.60;;;;;;5128564;27;20375;-86
2021/12/13 08:17:51;;;;;;;10.32;2.70;;;26.10;57.70;;;;;;5112667;28;20447;-86
2021/12/13 08:20:35;;;;;;;9.85;2.67;;;25.50;58.90;;;;;;5121887;27;20385;-86
2021/12/13 08:23:12;;;;;;;8.55;2.50;;;25.00;60.50;;;;;;5132849;27;20369;-86
2021/12/13 08:25:40;;;;;;;11.32;2.90;;;24.80;62.20;;;;;;5134078;27;20371;-84
2021/12/13 08:28:15;;;;;;;9.07;2.38;;;24.50;63.20;;;;;;5133046;27;20887;-87
2021/12/13 08:31:01;;;;;;;8.50;2.60;;;24.30;63.70;;;;;;5132003;27;20413;-86
2021/12/13 08:33:44;;;;;;;10.23;2.50;;;24.00;65.50;;;;;;5114204;27;20369;-85
2021/12/13 08:36:18;;;;;;;9.88;2.47;;;23.80;66.10;;;;;;5112288;28;20654;-86
2021/12/13 08:39:05;;;;;;;9.63;2.78;;;23.50;67.50;;;;;;5111998;28;20378;-85
2021/12/13 08:41:55;;;;;;;9.82;2.88;;;23.20;68.90;;;;;;5112272;28;20452;-86
2021/12/13 08:44:37;;;;;;;10.23;2.42;;;23.00;70.70;;;;;;5101275;27;20373;-87
2021/12/13 08:47:09;;;;;;;8.65;2.50;;;22.70;72.20;;;;;;5132803;27;20445;-86
2021/12/13 08:49:44;;;;;;;10.77;2.67;;;22.50;73.60;;;;;;5132017;27;20361;-86
2021/12/13 08:52:18;;;;;;;10.17;2.50;;;22.30;75.00;;;;;;5132491;27;20400;-88
2021/12/13 08:55:00;;;;;;;10.45;2.90;;;22.20;76.70;;;;;;5130289;27;20383;-89
2021/12/13 08:57:33;;;;;;;10.77;2.40;;;22.00;78.40;;;;;;5109522;27;20415;-87
2021/12/13 09:00:30;;;;;;;14.05;2.80;;;21.80;79.70;;;;;;5133298;27;20412;-86
2021/12/13 09:03:00;;;;;;;9.73;2.40;;;21.60;82.00;;;;;;5109291;28;20389;-86
2021/12/13 09:05:39;;;;;;;10.95;2.88;;;21.30;84.60;;;;;;5111433;28;20367;-86
2021/12/13 09:08:10;;;;;;;10.90;2.90;;;21.10;87.50;;;;;;5112067;28;20370;-86
2021/12/13 09:10:40;;;;;;;12.17;2.97;;;21.00;90.20;;;;;;5112075;28;20403;-86
2021/12/13 09:13:08;;;;;;;13.73;2.60;;;20.80;91.30;;;;;;5118559;27;20459;-86
2021/12/13 09:15:38;;;;;;;10.23;2.63;;;20.70;92.20;;;;;;5120539;27;20866;-87
2021/12/13 09:18:07;;;;;;;10.48;2.70;;;20.50;92.80;;;;;;5130551;27;20428;-86
2021/12/13 09:20:46;;;;;;;13.97;3.03;;;20.50;93.80;;;;;;5136608;27;20370;-87
2021/12/13 09:23:16;;;;;;;11.70;2.90;;;20.30;94.50;;;;;;5132361;27;20385;-87
2021/12/13 09:25:51;;;;;;;12.30;2.42;;;20.30;95.50;;;;;;5113420;27;20385;-88
2021/12/13 09:28:23;;;;;;;10.00;2.50;;;20.20;96.00;;;;;;5132416;27;20417;-88
2021/12/13 09:30:58;;;;;;;10.77;2.50;;;20.20;96.40;;;;;;5131659;27;20381;-87
2021/12/13 09:33:46;;;;;;;11.30;2.72;;;20.10;97.00;;;;;;5130287;27;20369;-87
2021/12/13 09:36:18;;;;;;;9.47;2.60;;;20.00;97.50;;;;;;5131607;27;20392;-87
2021/12/13 09:38:54;;;;;;;13.80;2.78;;;20.00;97.70;;;;;;5131269;27;20400;-87
2021/12/13 09:41:52;;;;;;;10.75;2.45;;;19.90;97.80;;;;;;5131549;27;20416;-88
2021/12/13 09:44:44;;;;;;;11.23;2.67;;;19.90;98.40;;;;;;5123708;27;20376;-87
2021/12/13 09:47:20;;;;;;;13.47;2.73;;;19.80;98.60;;;;;;5130986;27;20426;-88
2021/12/13 09:49:59;;;;;;;14.98;2.72;;;19.80;98.60;;;;;;5131093;27;20415;-87
2021/12/13 09:52:42;;;;;;;14.25;3.13;;;19.80;98.90;;;;;;5131113;27;20380;-86
2021/12/13 09:55:36;;;;;;;11.05;2.63;;;19.70;99.10;;;;;;5130536;27;20453;-87
2021/12/13 09:58:26;;;;;;;11.57;2.70;;;19.80;99.30;;;;;;5130886;28;20400;-87
2021/12/13 10:01:00;;;;;;;11.52;3.00;;;19.80;99.20;;;;;;5131128;27;20940;-87
2021/12/13 10:03:43;;;;;;;13.00;2.92;;;19.70;99.10;;;;;;5112827;28;20392;-88
2021/12/13 10:06:12;;;;;;;12.52;2.63;;;19.60;99.50;;;;;;5130967;27;20404;-87
2021/12/13 10:08:53;;;;;;;9.77;2.70;;;19.50;99.60;;;;;;5130869;27;20454;-87
2021/12/13 10:11:45;;;;;;;12.13;2.93;;;19.50;99.80;;;;;;5128477;27;20372;-88
2021/12/13 10:14:17;;;;;;;11.38;2.60;;;19.30;99.90;;;;;;5131124;27;20372;-87
2021/12/13 10:16:46;;;;;;;10.63;2.63;;;19.40;99.90;;;;;;5131599;27;20385;-87
2021/12/13 10:19:22;;;;;;;12.27;2.80;;;19.20;99.90;;;;;;5131568;27;20380;-86
2021/12/13 10:21:49;;;;;;;10.10;2.78;;;19.10;99.90;;;;;;5131093;27;20902;-87
2021/12/13 10:24:34;;;;;;;11.27;2.40;;;19.10;99.90;;;;;;5130798;27;20401;-87
2021/12/13 10:27:04;;;;;;;11.25;2.60;;;19.00;99.90;;;;;;5134958;27;20395;-86
2021/12/13 10:29:32;;;;;;;10.98;2.75;;;18.90;99.90;;;;;;5134830;27;20391;-86
2021/12/13 10:32:06;;;;;;;10.85;2.53;;;18.80;99.90;;;;;;5135287;27;20421;-87
2021/12/13 10:34:36;;;;;;;12.57;2.88;;;18.80;99.90;;;;;;5134651;27;20479;-87
2021/12/13 10:37:34;;;;;;;12.30;2.63;;;18.80;99.90;;;;;;5134891;27;20408;-86
2021/12/13 10:40:14;;;;;;;11.27;2.83;;;19.00;99.90;;;;;;5131519;27;20403;-85
2021/12/13 10:42:55;;;;;;;11.65;2.67;;;18.90;99.90;;;;;;5134959;27;20385;-86
2021/12/13 10:45:28;;;;;;;11.25;2.50;;;18.80;99.90;;;;;;5134393;27;20880;-87
2021/12/13 10:47:58;;;;;;;13.10;2.40;;;18.80;99.90;;;;;;5134513;27;20373;-85
2021/12/13 10:50:35;;;;;;;10.80;2.70;;;18.70;99.90;;;;;;5134655;27;20385;-86
2021/12/13 10:53:07;;;;;;;13.00;2.80;;;18.60;99.90;;;;;;5134540;27;20728;-87
2021/12/13 10:55:38;;;;;;;10.32;2.53;;;18.60;99.90;;;;;;5132655;27;20400;-85
2021/12/13 10:58:07;;;;;;;14.45;3.10;;;18.60;99.90;;;;;;5134489;27;20456;-86
2021/12/13 11:00:42;;;;;;;15.13;2.72;;;18.60;99.90;;;;;;5133030;27;20385;-86
2021/12/13 11:03:18;;;;;;;19.38;2.95;;;18.60;99.90;;;;;;5115950;27;20388;-86
2021/12/13 11:05:46;;;;;;;16.35;2.90;;;18.60;99.90;;;;;;5133957;27;20369;-86
2021/12/13 11:08:16;;;;;;;20.77;4.03;;;18.60;99.90;;;;;;5134149;27;20894;-88
2021/12/13 11:10:48;;;;;;;24.03;3.93;;;18.50;99.90;;;;;;5116500;27;20411;-89
2021/12/13 11:13:16;;;;;;;22.25;3.67;;;18.40;99.90;;;;;;5133937;27;20741;-88
2021/12/13 11:15:46;;;;;;;25.83;3.83;;;18.30;99.90;;;;;;5134176;27;20377;-86
2021/12/13 11:18:15;;;;;;;27.25;4.05;;;18.20;99.90;;;;;;5134202;27;20397;-87
2021/12/13 11:20:47;;;;;;;27.25;3.75;;;18.20;99.90;;;;;;5134367;27;20365;-87
2021/12/13 11:23:18;;;;;;;30.13;4.13;;;18.20;99.90;;;;;;5133650;27;20460;-87
2021/12/13 11:25:50;;;;;;;26.80;3.63;;;18.20;99.90;;;;;;5133667;27;20400;-87
2021/12/13 11:28:19;;;;;;;24.92;3.58;;;18.20;99.90;;;;;;5133885;27;20381;-87
2021/12/13 11:30:48;;;;;;;24.17;4.07;;;18.20;99.90;;;;;;5133705;27;20515;-88
2021/12/13 11:33:41;;;;;;;28.85;4.03;;;18.20;99.90;;;;;;5133786;27;20381;-87
2021/12/13 11:36:09;;;;;;;21.83;3.60;;;18.10;99.90;;;;;;5132975;27;20408;-85
2021/12/13 11:38:45;;;;;;;18.13;3.20;;;18.00;99.90;;;;;;5132866;27;20385;-85
2021/12/13 11:41:34;;;;;;;19.42;3.50;;;17.90;99.90;;;;;;5133235;27;20377;-86
2021/12/13 11:44:27;;;;;;;16.42;3.40;;;17.70;99.90;;;;;;5133346;27;20444;-86
2021/12/13 11:47:12;;;;;;;20.43;3.60;;;17.60;99.90;;;;;;5133943;27;20405;-86
2021/12/13 11:49:57;;;;;;;17.80;3.83;;;17.60;99.90;;;;;;5133144;27;20447;-85
2021/12/13 11:53:00;;;;;;;18.60;5.13;;;17.60;99.90;;;;;;5120586;27;20732;-85
2021/12/13 11:56:04;;;;;;;19.77;4.35;;;17.70;99.90;;;;;;5128127;27;20941;-85
2021/12/13 11:58:49;;;;;;;19.83;5.30;;;17.80;99.90;;;;;;5133314;27;20457;-85
2021/12/13 12:01:40;;;;;;;16.48;4.63;;;17.80;99.90;;;;;;5119977;27;20770;-86
2021/12/13 12:04:43;;;;;;;14.82;3.90;;;17.80;99.90;;;;;;5133485;27;20880;-87
2021/12/13 12:07:35;;;;;;;18.00;4.95;;;17.60;99.90;;;;;;5133254;27;20388;-88
2021/12/13 12:10:23;;;;;;;23.85;5.55;;;17.50;99.90;;;;;;5112639;28;20867;-88
2021/12/13 12:13:16;;;;;;;29.90;6.88;;;17.50;99.90;;;;;;5126805;27;20377;-88
2021/12/13 12:15:46;;;;;;;23.42;5.57;;;17.40;99.90;;;;;;5112960;28;20367;-86
2021/12/13 12:18:21;;;;;;;24.10;5.37;;;17.20;99.90;;;;;;5104342;27;20405;-87
2021/12/13 12:21:29;;;;;;;24.40;4.78;;;17.20;99.90;;;;;;5120914;27;20377;-87
2021/12/13 12:24:01;;;;;;;16.80;4.60;;;17.20;99.90;;;;;;5134701;27;20379;-86
2021/12/13 12:26:28;;;;;;;25.27;6.60;;;17.20;99.90;;;;;;5133258;27;20438;-86
2021/12/13 12:28:59;;;;;;;22.88;6.57;;;17.20;99.90;;;;;;5126422;27;20782;-87
2021/12/13 12:31:35;;;;;;;24.13;6.90;;;17.20;99.90;;;;;;5132919;27;20403;-86
2021/12/13 12:34:04;;;;;;;20.92;6.28;;;17.20;99.90;;;;;;5132585;27;20406;-85
2021/12/13 12:36:58;;;;;;;28.13;7.60;;;17.30;99.90;;;;;;5114262;27;20389;-85
2021/12/13 12:39:50;;;;;;;23.35;7.18;;;17.30;99.90;;;;;;5134789;27;20423;-87
2021/12/13 12:42:37;;;;;;;25.33;7.73;;;17.30;99.90;;;;;;5132083;27;21960;-84
2021/12/13 12:45:16;;;;;;;25.83;7.20;;;17.30;99.90;;;;;;5132517;27;20376;-86
2021/12/13 12:47:58;;;;;;;25.15;7.10;;;17.30;99.90;;;;;;5131825;27;20385;-84
2021/12/13 12:50:31;;;;;;;25.13;6.95;;;17.20;99.90;;;;;;5131921;27;20373;-84
2021/12/13 12:53:05;;;;;;;22.10;6.40;;;17.10;99.90;;;;;;5132145;27;20381;-84
2021/12/13 12:55:43;;;;;;;22.95;5.97;;;17.00;99.90;;;;;;5132273;27;20821;-84
2021/12/13 12:58:14;;;;;;;19.77;5.22;;;16.90;99.90;;;;;;5130474;27;20393;-85
2021/12/13 13:00:43;;;;;;;22.35;5.15;;;16.90;99.90;;;;;;5131907;27;20380;-84
2021/12/13 13:03:25;;;;;;;15.18;4.40;;;16.90;99.90;;;;;;5131704;27;20377;-84
2021/12/13 13:06:00;;;;;;;18.20;4.63;;;16.80;99.90;;;;;;5132099;27;20365;-86
2021/12/13 13:08:34;;;;;;;21.13;4.47;;;16.80;99.90;;;;;;5132111;27;20460;-87
2021/12/13 13:13:48;;;;;;;16.10;4.68;;;16.60;99.90;;;;;;5129857;27;20402;-83
2021/12/13 13:16:19;;;;;;;16.58;4.45;;;16.60;99.90;;;;;;5131753;27;20471;-84
2021/12/13 13:18:47;;;;;;;18.80;4.30;;;16.60;99.90;;;;;;5131677;27;20385;-86
2021/12/13 13:21:17;;;;;;;14.73;3.75;;;16.60;99.90;;;;;;5131742;27;20396;-86
2021/12/13 13:23:48;;;;;;;12.77;3.90;;;16.70;99.90;;;;;;5131661;27;20464;-85
2021/12/13 13:26:18;;;;;;;16.23;3.85;;;16.70;99.90;;;;;;5131825;27;20425;-84
2021/12/13 13:28:54;;;;;;;18.60;3.95;;;16.70;99.90;;;;;;5131493;27;20379;-86
2021/12/13 13:31:27;;;;;;;13.73;3.75;;;16.60;99.90;;;;;;5131305;27;20380;-86
2021/12/13 13:34:14;;;;;;;13.52;3.78;;;16.60;99.90;;;;;;5131319;27;20384;-83
2021/12/13 13:36:45;;;;;;;15.73;4.15;;;16.50;99.90;;;;;;5130929;27;20404;-83
2021/12/13 13:39:33;;;;;;;19.33;4.15;;;16.40;99.90;;;;;;5130775;27;20442;-84
2021/12/13 13:42:09;;;;;;;14.25;3.85;;;16.30;99.90;;;;;;5123980;27;20381;-84
2021/12/13 13:45:01;;;;;;;14.27;4.05;;;16.20;99.90;;;;;;5112749;27;20767;-84